Time;durP1;ratioP1;P1;durP2;ratioP2;P2;SDS_P1;SDS_P2;PMS_P1;PMS_P2;Temp;Humidity;BMP_temperature;BMP_pressure;BME280_temperature;BME280_humidity;BME280_pressure;Samples;Min_cycle;Max_cycle;Signal;HPM_P1;HPM_P2
2022/12/19 00:01:15;;;;;;;39.93;25.77;;;0.90;99.90;;;;;;5039787;28;20056;-79
2022/12/19 00:03:56;;;;;;;43.42;26.70;;;0.90;99.90;;;;;;5073362;28;20044;-80
2022/12/19 00:06:22;;;;;;;42.20;26.10;;;0.90;99.90;;;;;;5055853;28;20109;-79
2022/12/19 00:08:50;;;;;;;41.90;25.70;;;1.00;99.90;;;;;;5055421;28;20040;-80
2022/12/19 00:11:18;;;;;;;44.58;27.58;;;1.00;99.90;;;;;;5055535;28;20045;-80
2022/12/19 00:13:44;;;;;;;41.40;25.73;;;1.00;99.90;;;;;;5055177;28;20048;-80
2022/12/19 00:16:14;;;;;;;43.75;26.70;;;1.00;99.90;;;;;;5073260;28;20489;-80
2022/12/19 00:18:40;;;;;;;41.65;25.20;;;1.00;99.90;;;;;;5055573;28;20502;-80
2022/12/19 00:21:07;;;;;;;43.65;27.10;;;1.00;99.90;;;;;;5055478;28;20075;-80
2022/12/19 00:23:34;;;;;;;43.10;26.73;;;1.00;99.90;;;;;;5055147;28;20086;-80
2022/12/19 00:26:26;;;;;;;42.45;27.88;;;1.00;99.90;;;;;;5056174;28;20114;-80
2022/12/19 00:28:58;;;;;;;44.30;28.50;;;1.00;99.90;;;;;;5055608;28;20084;-81
2022/12/19 00:31:27;;;;;;;44.08;26.83;;;1.00;99.90;;;;;;5039084;28;20048;-80
2022/12/19 00:33:52;;;;;;;46.17;26.50;;;1.10;99.90;;;;;;5055235;28;20055;-81
2022/12/19 00:36:26;;;;;;;46.23;26.80;;;;;;;;;;5056045;28;20036;-81
2022/12/19 00:38:54;;;;;;;43.72;26.80;;;1.10;99.90;;;;;;5072698;28;20181;-81
2022/12/19 00:41:26;;;;;;;44.25;26.63;;;1.20;99.90;;;;;;5055248;28;20052;-81
2022/12/19 00:43:57;;;;;;;42.42;26.33;;;1.10;99.90;;;;;;5055457;28;20485;-81
2022/12/19 00:46:24;;;;;;;45.90;27.67;;;1.20;99.90;;;;;;5074870;28;20123;-81
2022/12/19 00:48:50;;;;;;;46.20;27.55;;;1.20;99.90;;;;;;5058478;28;20045;-82
2022/12/19 00:51:24;;;;;;;44.45;28.35;;;1.20;99.90;;;;;;5043035;28;20045;-82
2022/12/19 00:53:52;;;;;;;45.08;26.80;;;1.20;99.90;;;;;;5059255;28;20040;-82
2022/12/19 00:56:22;;;;;;;46.15;28.02;;;1.30;99.90;;;;;;5058571;28;20137;-81
2022/12/19 00:58:48;;;;;;;50.13;29.15;;;1.40;99.90;;;;;;5076389;28;20128;-82
2022/12/19 01:01:16;;;;;;;47.83;28.58;;;1.30;99.90;;;;;;5077156;28;20182;-81
2022/12/19 01:03:42;;;;;;;46.88;27.33;;;1.30;99.90;;;;;;5076352;28;20136;-82
2022/12/19 01:06:08;;;;;;;43.40;26.45;;;1.30;99.90;;;;;;5058477;28;20131;-82
2022/12/19 01:08:34;;;;;;;44.92;26.63;;;1.10;99.90;;;;;;5076122;28;20037;-82
2022/12/19 01:11:00;;;;;;;44.25;27.33;;;1.40;99.90;;;;;;5041901;28;20048;-82
2022/12/19 01:13:28;;;;;;;49.00;27.93;;;1.40;99.90;;;;;;5042207;28;20059;-82
2022/12/19 01:15:53;;;;;;;45.60;27.52;;;1.50;99.90;;;;;;5076155;28;20048;-82
2022/12/19 01:18:19;;;;;;;45.70;28.07;;;1.40;99.90;;;;;;5076075;28;20048;-81
2022/12/19 01:20:48;;;;;;;44.83;27.87;;;1.50;99.90;;;;;;5058383;28;20045;-80
2022/12/19 01:23:16;;;;;;;51.45;28.55;;;1.50;99.90;;;;;;5075879;28;20457;-82
2022/12/19 01:25:47;;;;;;;48.75;27.65;;;1.40;99.90;;;;;;5058951;28;20042;-82
2022/12/19 01:28:14;;;;;;;45.75;27.40;;;2.00;99.90;;;;;;5076316;28;20056;-82
2022/12/19 01:30:40;;;;;;;46.53;28.88;;;1.50;99.90;;;;;;5041574;28;20083;-82
2022/12/19 01:33:07;;;;;;;48.55;27.63;;;1.50;99.90;;;;;;5075569;28;20082;-82
2022/12/19 01:35:33;;;;;;;51.30;29.85;;;1.50;99.90;;;;;;5057826;28;20044;-82
2022/12/19 01:37:59;;;;;;;46.00;27.40;;;1.50;99.90;;;;;;5058056;28;20049;-82
2022/12/19 01:40:24;;;;;;;47.47;28.40;;;1.50;99.90;;;;;;5057830;28;20048;-82
2022/12/19 01:42:50;;;;;;;48.80;28.27;;;1.60;99.90;;;;;;5076087;28;20461;-82
2022/12/19 01:45:16;;;;;;;52.70;30.37;;;1.50;99.90;;;;;;5058512;28;20048;-82
2022/12/19 01:47:52;;;;;;;52.23;28.87;;;1.60;99.90;;;;;;5057466;28;20435;-82
2022/12/19 01:50:41;;;;;;;55.92;30.35;;;1.50;99.90;;;;;;5075503;28;20465;-81
2022/12/19 01:53:09;;;;;;;52.30;29.90;;;1.50;99.90;;;;;;5027997;28;20052;-81
2022/12/19 01:55:37;;;;;;;53.30;30.02;;;1.50;99.90;;;;;;5075448;28;20087;-81
2022/12/19 01:58:03;;;;;;;56.33;32.15;;;1.50;99.90;;;;;;5074633;28;20098;-81
2022/12/19 02:00:30;;;;;;;53.33;31.97;;;1.50;99.90;;;;;;5058503;28;20048;-81
2022/12/19 02:03:13;;;;;;;59.53;33.60;;;1.60;99.90;;;;;;5075250;28;20097;-82
2022/12/19 02:05:39;;;;;;;61.25;32.35;;;1.50;99.90;;;;;;5057478;28;20051;-81
2022/12/19 02:08:06;;;;;;;55.40;30.88;;;1.50;99.90;;;;;;5057180;28;20090;-81
2022/12/19 02:10:32;;;;;;;61.58;33.58;;;1.50;99.90;;;;;;5075119;28;20192;-81
2022/12/19 02:12:58;;;;;;;58.08;33.10;;;1.60;99.90;;;;;;5057782;28;20079;-81
2022/12/19 02:15:28;;;;;;;61.60;32.80;;;1.60;99.90;;;;;;5074714;28;20493;-81
2022/12/19 02:18:05;;;;;;;64.85;35.53;;;1.60;99.90;;;;;;5075526;28;20052;-81
2022/12/19 02:20:58;;;;;;;59.38;33.35;;;1.60;99.90;;;;;;5074918;28;20089;-81
2022/12/19 02:23:55;;;;;;;60.88;34.53;;;1.60;99.90;;;;;;5057466;28;20473;-81
2022/12/19 02:26:38;;;;;;;59.47;33.28;;;1.60;99.90;;;;;;5057962;28;20056;-81
2022/12/19 02:29:32;;;;;;;60.83;35.10;;;1.60;99.90;;;;;;5074649;28;20040;-81
2022/12/19 02:32:12;;;;;;;70.10;35.97;;;1.60;99.90;;;;;;5054030;28;20063;-81
2022/12/19 02:34:44;;;;;;;62.42;36.72;;;1.60;99.90;;;;;;5057020;28;20135;-81
2022/12/19 02:37:26;;;;;;;68.22;35.95;;;1.60;99.90;;;;;;5074500;28;20099;-80
2022/12/19 02:40:35;;;;;;;68.68;36.90;;;1.60;99.90;;;;;;5074888;28;20401;-80
2022/12/19 02:43:03;;;;;;;74.43;38.78;;;1.60;99.90;;;;;;4969492;28;20047;-80
2022/12/19 02:45:34;;;;;;;71.95;36.17;;;1.70;99.90;;;;;;5056498;28;20059;-80
2022/12/19 02:48:02;;;;;;;70.53;37.65;;;1.70;99.90;;;;;;5074618;28;20044;-80
2022/12/19 02:50:39;;;;;;;68.55;36.22;;;1.70;99.90;;;;;;5056336;28;20397;-81
2022/12/19 02:53:05;;;;;;;70.45;36.13;;;1.70;99.90;;;;;;5056598;28;20055;-80
2022/12/19 02:55:50;;;;;;;65.40;34.78;;;1.80;99.90;;;;;;5074203;28;20047;-81
2022/12/19 02:58:24;;;;;;;69.95;35.08;;;1.80;99.90;;;;;;5057062;28;20357;-81
2022/12/19 03:01:10;;;;;;;67.28;36.05;;;1.80;99.90;;;;;;5056492;28;20093;-81
2022/12/19 03:04:02;;;;;;;62.08;33.90;;;1.80;99.90;;;;;;5074870;28;20381;-81
2022/12/19 03:06:44;;;;;;;61.72;34.72;;;1.90;99.90;;;;;;5040583;28;20427;-81
2022/12/19 03:09:44;;;;;;;63.53;36.17;;;1.90;99.90;;;;;;5055786;28;20044;-81
2022/12/19 03:12:24;;;;;;;63.83;34.97;;;1.90;99.90;;;;;;5056942;28;20396;-81
2022/12/19 03:14:52;;;;;;;66.40;36.33;;;1.90;99.90;;;;;;5073878;28;20048;-81
2022/12/19 03:17:18;;;;;;;63.97;35.83;;;2.00;99.90;;;;;;5073732;28;20102;-81
2022/12/19 03:19:44;;;;;;;62.40;35.40;;;2.70;99.90;;;;;;5056067;28;20036;-81
2022/12/19 03:22:10;;;;;;;62.42;35.15;;;2.40;99.90;;;;;;5056089;28;20067;-81
2022/12/19 03:24:36;;;;;;;67.40;34.13;;;2.00;99.90;;;;;;5073720;28;20044;-81
2022/12/19 03:27:10;;;;;;;65.30;35.60;;;2.00;99.90;;;;;;5073682;28;20048;-80
2022/12/19 03:29:52;;;;;;;73.95;37.67;;;2.00;99.90;;;;;;5073920;28;20120;-81
2022/12/19 03:32:19;;;;;;;69.80;37.05;;;2.10;99.90;;;;;;5074245;28;20071;-81
2022/12/19 03:35:12;;;;;;;72.80;36.03;;;2.10;99.90;;;;;;5056136;28;20091;-80
2022/12/19 03:37:40;;;;;;;71.93;38.03;;;2.10;99.90;;;;;;5074323;28;20047;-81
2022/12/19 03:40:09;;;;;;;75.75;37.88;;;;;;;;;;5055461;28;20090;-81
2022/12/19 03:45:33;;;;;;;74.55;39.08;;;2.10;99.90;;;;;;5056046;28;20060;-81
2022/12/19 03:48:06;;;;;;;74.07;39.30;;;2.20;99.90;;;;;;5073433;28;20048;-81
2022/12/19 03:50:45;;;;;;;73.97;38.42;;;2.20;99.90;;;;;;5073194;28;20204;-81
2022/12/19 03:53:59;;;;;;;77.82;39.80;;;2.20;99.90;;;;;;5056409;28;20052;-82
2022/12/19 03:56:45;;;;;;;74.28;39.85;;;2.20;99.90;;;;;;4956169;28;20082;-82
2022/12/19 04:00:09;;;;;;;76.25;39.75;;;2.20;99.90;;;;;;4956555;28;20125;-82
2022/12/19 04:02:38;;;;;;;78.03;39.65;;;2.20;99.90;;;;;;5033272;28;20063;-82
2022/12/19 04:05:07;;;;;;;72.65;39.63;;;2.30;99.90;;;;;;5055547;28;20052;-82
2022/12/19 04:07:35;;;;;;;79.75;39.38;;;2.30;99.90;;;;;;5073523;28;20044;-82
2022/12/19 04:10:08;;;;;;;75.95;39.00;;;2.40;99.90;;;;;;5055502;28;20051;-82
2022/12/19 04:12:43;;;;;;;72.72;39.75;;;2.30;99.90;;;;;;5055510;28;20049;-82
2022/12/19 04:15:12;;;;;;;74.25;39.63;;;2.30;99.90;;;;;;5073784;28;20048;-83
2022/12/19 04:17:50;;;;;;;75.18;41.17;;;2.30;99.90;;;;;;5055491;28;20044;-82
2022/12/19 04:20:23;;;;;;;76.18;41.65;;;2.30;99.90;;;;;;5055495;28;20056;-82
2022/12/19 04:22:56;;;;;;;72.13;39.20;;;2.40;99.90;;;;;;5077990;28;20119;-82
2022/12/19 04:25:31;;;;;;;79.78;42.55;;;2.30;99.90;;;;;;5077156;28;20063;-82
2022/12/19 04:28:02;;;;;;;74.22;39.95;;;2.30;99.90;;;;;;5042995;28;20036;-83
2022/12/19 04:30:27;;;;;;;73.43;40.90;;;2.40;99.90;;;;;;5059780;28;20051;-83
2022/12/19 04:32:54;;;;;;;78.23;40.40;;;2.40;99.90;;;;;;5026239;28;20127;-83
2022/12/19 04:35:20;;;;;;;78.30;41.45;;;2.40;99.90;;;;;;5059264;28;20397;-83
2022/12/19 04:37:46;;;;;;;84.17;41.63;;;2.40;99.90;;;;;;5059360;28;20044;-84
2022/12/19 04:40:12;;;;;;;80.73;40.90;;;2.40;99.90;;;;;;5042340;28;20061;-84
2022/12/19 04:42:38;;;;;;;82.47;41.22;;;2.40;99.90;;;;;;5042471;28;20103;-84
2022/12/19 04:45:04;;;;;;;83.23;41.43;;;2.40;99.90;;;;;;5059057;28;20080;-83
2022/12/19 04:47:30;;;;;;;85.43;43.33;;;2.50;99.90;;;;;;5058801;28;20052;-83
2022/12/19 04:49:56;;;;;;;88.27;43.10;;;2.50;99.90;;;;;;5058724;28;20033;-83
2022/12/19 04:52:22;;;;;;;87.30;41.67;;;2.50;99.90;;;;;;5059221;28;20078;-83
2022/12/19 04:54:48;;;;;;;85.60;43.07;;;2.50;99.90;;;;;;5058836;28;20503;-83
2022/12/19 04:57:13;;;;;;;92.70;44.03;;;2.60;99.90;;;;;;5059618;28;20055;-84
2022/12/19 04:59:39;;;;;;;91.13;43.17;;;2.60;99.90;;;;;;5058801;28;20052;-84
2022/12/19 05:02:06;;;;;;;87.30;43.50;;;2.50;99.90;;;;;;5058742;28;20049;-84
2022/12/19 05:04:31;;;;;;;85.80;41.72;;;2.60;99.90;;;;;;5058591;28;20166;-83
2022/12/19 05:06:57;;;;;;;93.07;42.47;;;2.50;99.90;;;;;;5058625;28;20062;-84
2022/12/19 05:09:23;;;;;;;94.47;45.23;;;2.60;99.90;;;;;;5058600;28;20090;-84
2022/12/19 05:11:48;;;;;;;88.50;41.50;;;2.60;99.90;;;;;;5058574;28;20043;-84
2022/12/19 05:14:14;;;;;;;91.77;42.10;;;2.60;99.90;;;;;;5058499;28;20083;-84
2022/12/19 05:16:40;;;;;;;90.30;42.30;;;2.60;99.90;;;;;;5042137;28;20446;-84
2022/12/19 05:19:06;;;;;;;86.32;43.28;;;2.70;99.90;;;;;;5025190;28;20488;-84
2022/12/19 05:21:31;;;;;;;98.43;44.20;;;2.70;99.90;;;;;;5059144;28;20047;-84
2022/12/19 05:23:57;;;;;;;94.13;43.23;;;2.70;99.90;;;;;;5059059;28;20042;-83
2022/12/19 05:26:23;;;;;;;94.77;42.80;;;2.80;99.90;;;;;;5058369;28;20045;-84
2022/12/19 05:28:49;;;;;;;92.43;43.17;;;2.80;99.90;;;;;;5058668;28;20342;-84
2022/12/19 05:31:18;;;;;;;102.17;44.30;;;2.80;99.90;;;;;;5057857;28;20044;-85
2022/12/19 05:33:45;;;;;;;89.05;41.53;;;2.90;99.90;;;;;;5058186;28;20393;-85
2022/12/19 05:36:12;;;;;;;80.38;41.63;;;2.80;99.90;;;;;;5058141;28;20134;-85
2022/12/19 05:38:39;;;;;;;90.38;41.97;;;2.80;99.90;;;;;;5057883;28;20053;-85
2022/12/19 05:41:10;;;;;;;97.65;42.72;;;2.90;99.90;;;;;;5058022;28;20064;-85
2022/12/19 05:43:36;;;;;;;81.45;41.10;;;3.20;99.90;;;;;;5057625;28;20044;-86
2022/12/19 05:46:04;;;;;;;86.97;40.33;;;2.90;99.90;;;;;;5042132;28;20101;-86
2022/12/19 05:48:30;;;;;;;87.07;40.72;;;2.90;99.90;;;;;;5057870;28;20044;-86
2022/12/19 05:50:56;;;;;;;80.93;40.30;;;3.00;99.90;;;;;;5040979;28;20174;-87
2022/12/19 05:53:22;;;;;;;86.37;40.33;;;2.90;99.90;;;;;;5058408;28;20041;-87
2022/12/19 05:55:47;;;;;;;90.97;40.20;;;2.90;99.90;;;;;;5041526;28;20283;-86
2022/12/19 05:58:13;;;;;;;92.40;41.93;;;3.00;99.90;;;;;;5041105;28;20044;-87
2022/12/19 06:00:39;;;;;;;91.47;40.27;;;3.00;99.90;;;;;;5057537;28;20075;-86
2022/12/19 06:03:04;;;;;;;84.60;39.17;;;3.10;99.90;;;;;;5057645;28;20098;-87
2022/12/19 06:05:31;;;;;;;84.30;37.10;;;3.00;99.90;;;;;;5058441;28;20434;-87
2022/12/19 06:07:57;;;;;;;83.90;38.03;;;;;;;;;;5057650;28;20052;-87
2022/12/19 06:10:23;;;;;;;73.47;36.35;;;;;;;;;;5024285;28;20135;-86
2022/12/19 06:12:48;;;;;;;76.95;36.72;;;3.10;99.90;;;;;;5024313;28;20492;-87
2022/12/19 06:15:14;;;;;;;73.60;35.30;;;;;;;;;;5024423;28;20048;-86
2022/12/19 06:17:40;;;;;;;80.25;36.25;;;3.20;99.90;;;;;;5058171;28;20048;-87
2022/12/19 06:20:06;;;;;;;77.97;37.37;;;3.20;99.90;;;;;;5057318;28;20181;-87
2022/12/19 06:22:33;;;;;;;75.03;36.10;;;3.20;99.90;;;;;;5057436;28;20046;-87
2022/12/19 06:24:59;;;;;;;74.57;37.55;;;3.20;99.90;;;;;;5057289;28;20044;-87
2022/12/19 06:27:24;;;;;;;76.97;36.30;;;3.30;99.90;;;;;;5057501;28;20468;-86
2022/12/19 06:29:50;;;;;;;79.40;34.50;;;3.30;99.90;;;;;;5056853;28;20450;-87
2022/12/19 06:32:16;;;;;;;76.87;36.33;;;3.30;99.90;;;;;;5040383;28;20040;-87
2022/12/19 06:34:41;;;;;;;70.87;34.93;;;3.30;99.90;;;;;;5041004;28;20048;-86
2022/12/19 06:37:07;;;;;;;70.47;34.10;;;3.30;99.90;;;;;;5057769;28;20128;-87
2022/12/19 06:39:33;;;;;;;73.57;35.50;;;3.30;99.90;;;;;;5074350;28;20063;-86
2022/12/19 06:44:43;;;;;;;68.50;33.58;;;3.40;99.90;;;;;;5057575;28;20087;-88
2022/12/19 06:47:08;;;;;;;66.90;32.93;;;3.40;99.90;;;;;;5056859;28;20131;-88
2022/12/19 06:49:34;;;;;;;65.63;32.97;;;3.50;99.90;;;;;;5039742;28;20373;-87
2022/12/19 06:52:00;;;;;;;62.57;30.40;;;3.40;99.90;;;;;;5074906;28;20048;-87
2022/12/19 06:54:25;;;;;;;59.50;30.47;;;3.90;99.90;;;;;;5056614;28;20140;-85
2022/12/19 06:56:51;;;;;;;64.03;30.53;;;3.50;99.90;;;;;;5056715;28;20388;-86
2022/12/19 06:59:17;;;;;;;60.70;31.20;;;3.50;99.90;;;;;;5057353;28;20082;-86
2022/12/19 07:02:01;;;;;;;67.03;31.77;;;3.50;99.90;;;;;;5074861;28;20084;-85
2022/12/19 07:04:47;;;;;;;60.88;31.13;;;3.50;99.90;;;;;;5056865;28;20049;-84
2022/12/19 07:07:12;;;;;;;69.82;32.95;;;3.50;99.90;;;;;;5074107;28;20502;-84
2022/12/19 07:09:38;;;;;;;67.03;32.93;;;3.60;99.90;;;;;;5073902;28;20043;-85
2022/12/19 07:12:04;;;;;;;61.35;32.00;;;3.70;99.90;;;;;;5074035;28;20071;-85
2022/12/19 07:14:30;;;;;;;83.97;34.67;;;3.70;99.90;;;;;;5057062;28;20476;-85
2022/12/19 07:16:59;;;;;;;64.30;31.50;;;3.70;99.90;;;;;;5056248;28;20551;-86
2022/12/19 07:19:27;;;;;;;71.82;33.35;;;3.60;99.90;;;;;;5039552;28;20122;-85
2022/12/19 07:21:54;;;;;;;68.80;31.70;;;3.70;99.90;;;;;;5074178;28;20078;-84
2022/12/19 07:24:19;;;;;;;68.57;31.98;;;3.80;99.90;;;;;;5039519;28;20489;-85
2022/12/19 07:26:45;;;;;;;76.20;33.77;;;4.10;99.90;;;;;;5055880;28;20087;-84
2022/12/19 07:29:11;;;;;;;70.53;32.30;;;;;;;;;;5073287;28;20157;-84
2022/12/19 07:31:38;;;;;;;74.30;33.03;;;;;;;;;;5039330;28;20040;-84
2022/12/19 07:34:04;;;;;;;65.38;33.30;;;;;;;;;;5056723;28;20052;-84
2022/12/19 07:36:30;;;;;;;73.35;33.45;;;;;;;;;;5073563;28;20049;-83
2022/12/19 07:38:56;;;;;;;76.05;32.75;;;;;;;;;;5073415;28;20052;-84
2022/12/19 07:41:22;;;;;;;74.07;33.25;;;;;;;;;;5073616;28;20127;-83
2022/12/19 07:43:48;;;;;;;69.32;30.92;;;;;;;;;;5039633;28;20044;-83
2022/12/19 07:46:14;;;;;;;65.43;33.00;;;;;;;;;;5039483;28;20044;-83
2022/12/19 07:48:40;;;;;;;82.15;33.47;;;;;;;;;;5056246;28;20473;-83
2022/12/19 07:51:06;;;;;;;71.55;32.13;;;;;;;;;;5073471;28;20056;-83
2022/12/19 07:53:32;;;;;;;53.83;28.90;;;4.20;99.90;;;;;;5056033;28;20056;-83
2022/12/19 07:55:58;;;;;;;64.03;29.37;;;4.20;99.90;;;;;;5055761;28;20049;-82
2022/12/19 07:58:23;;;;;;;63.60;30.40;;;4.20;99.90;;;;;;5074085;28;20532;-82
2022/12/19 08:01:02;;;;;;;66.83;31.00;;;4.30;99.90;;;;;;5073596;28;20044;-83
2022/12/19 08:03:30;;;;;;;56.17;28.23;;;4.30;99.90;;;;;;5055560;28;20481;-83
2022/12/19 08:06:00;;;;;;;53.03;28.02;;;4.30;99.90;;;;;;5039762;28;20082;-83
2022/12/19 08:08:27;;;;;;;54.95;28.10;;;4.30;99.90;;;;;;5055314;28;20067;-82
2022/12/19 08:10:53;;;;;;;51.15;27.73;;;4.40;99.90;;;;;;5055506;28;20128;-82
2022/12/19 08:13:18;;;;;;;47.47;26.50;;;4.40;99.90;;;;;;5038876;28;20131;-82
2022/12/19 08:15:44;;;;;;;50.43;27.23;;;4.50;99.90;;;;;;5073985;28;20047;-85
2022/12/19 08:18:11;;;;;;;50.90;27.13;;;4.50;99.90;;;;;;5073260;28;20078;-83
2022/12/19 08:20:36;;;;;;;44.92;26.17;;;4.50;99.90;;;;;;5073204;28;20046;-80
2022/12/19 08:23:02;;;;;;;62.23;29.87;;;4.60;99.90;;;;;;5073672;28;20049;-82
2022/12/19 08:25:28;;;;;;;54.37;28.40;;;4.70;99.90;;;;;;5073190;28;20036;-82
2022/12/19 08:27:54;;;;;;;52.50;27.13;;;4.60;99.90;;;;;;5072765;28;20048;-82
2022/12/19 08:30:19;;;;;;;50.50;27.60;;;4.70;99.90;;;;;;5055127;28;20045;-83
2022/12/19 08:32:45;;;;;;;50.87;28.20;;;4.80;99.90;;;;;;5055249;28;20495;-81
2022/12/19 08:35:11;;;;;;;48.40;28.30;;;4.80;99.90;;;;;;5056207;28;20127;-83
2022/12/19 08:37:37;;;;;;;49.93;28.37;;;4.80;99.90;;;;;;5056161;28;20049;-83
2022/12/19 08:40:03;;;;;;;56.45;29.50;;;4.80;99.90;;;;;;5074007;28;20057;-82
2022/12/19 08:42:29;;;;;;;59.53;29.23;;;4.90;99.90;;;;;;5073473;28;20537;-81
2022/12/19 08:44:54;;;;;;;50.97;27.50;;;5.00;99.90;;;;;;5073306;28;20048;-83
2022/12/19 08:47:20;;;;;;;55.57;28.50;;;;;;;;;;5073012;28;20480;-84
2022/12/19 08:49:46;;;;;;;39.30;25.85;;;5.00;99.90;;;;;;5072765;28;20082;-84
2022/12/19 08:52:12;;;;;;;46.47;27.67;;;5.10;99.90;;;;;;5073743;28;20412;-84
2022/12/19 08:54:38;;;;;;;44.77;27.00;;;;;;;;;;5072829;28;20044;-82
2022/12/19 08:57:04;;;;;;;50.78;28.67;;;;;;;;;;5055148;28;20052;-83
2022/12/19 08:59:33;;;;;;;47.10;28.63;;;;;;;;;;5073313;28;20361;-83
2022/12/19 09:01:59;;;;;;;51.38;30.15;;;;;;;;;;5055136;28;20060;-84
2022/12/19 09:04:26;;;;;;;48.65;29.85;;;;;;;;;;5072946;28;20533;-81
2022/12/19 09:06:52;;;;;;;47.35;30.40;;;;;;;;;;5056029;28;20052;-81
2022/12/19 09:09:18;;;;;;;51.25;31.15;;;;;;;;;;5076218;28;20040;-82
2022/12/19 09:11:44;;;;;;;53.55;31.63;;;;;;;;;;5058577;28;20055;-83
2022/12/19 09:14:10;;;;;;;53.38;31.85;;;;;;;;;;5058142;28;20484;-81
2022/12/19 09:16:35;;;;;;;60.00;33.72;;;5.90;99.90;;;;;;5058701;28;20392;-84
2022/12/19 09:19:02;;;;;;;65.53;34.00;;;5.50;99.90;;;;;;5058688;28;20040;-83
2022/12/19 09:21:28;;;;;;;59.70;33.05;;;5.40;99.90;;;;;;5058792;28;20037;-83
2022/12/19 09:23:56;;;;;;;63.97;34.57;;;5.50;99.90;;;;;;5058489;28;20392;-82
2022/12/19 09:26:24;;;;;;;70.18;36.40;;;5.50;99.90;;;;;;5076005;28;20275;-82
2022/12/19 09:28:50;;;;;;;68.65;36.70;;;5.50;99.90;;;;;;5075901;28;20076;-81
2022/12/19 09:31:24;;;;;;;63.80;35.90;;;5.60;99.90;;;;;;5058847;28;20049;-80
2022/12/19 09:33:51;;;;;;;56.53;34.03;;;5.60;99.90;;;;;;5058127;28;20041;-83
2022/12/19 09:36:19;;;;;;;60.13;35.55;;;5.60;99.90;;;;;;5075815;28;20095;-80
2022/12/19 09:38:46;;;;;;;54.15;33.70;;;5.70;99.90;;;;;;5075860;28;20052;-80
2022/12/19 09:41:27;;;;;;;54.95;34.53;;;5.80;99.90;;;;;;5075774;28;20053;-80
2022/12/19 09:44:27;;;;;;;57.72;36.05;;;5.80;99.90;;;;;;5076215;28;20057;-83
2022/12/19 09:47:02;;;;;;;67.95;38.13;;;5.90;99.90;;;;;;5075621;28;20048;-81
2022/12/19 09:49:37;;;;;;;64.03;36.33;;;5.90;99.90;;;;;;5075856;28;20431;-81
2022/12/19 09:52:17;;;;;;;57.33;35.10;;;5.90;99.90;;;;;;5076238;28;20088;-82
2022/12/19 09:54:55;;;;;;;54.35;34.25;;;6.00;99.90;;;;;;5075883;28;20049;-85
2022/12/19 09:57:48;;;;;;;61.75;35.40;;;6.10;99.90;;;;;;5076158;28;20052;-84
2022/12/19 10:00:18;;;;;;;52.00;33.65;;;6.10;99.90;;;;;;5058121;28;20052;-82
2022/12/19 10:02:43;;;;;;;59.53;36.13;;;6.10;99.90;;;;;;5057373;28;20048;-82
2022/12/19 10:05:25;;;;;;;57.47;36.13;;;6.10;99.90;;;;;;5075381;28;20049;-81
2022/12/19 10:07:52;;;;;;;56.30;34.22;;;6.10;99.90;;;;;;5074851;28;20489;-81
2022/12/19 10:10:37;;;;;;;57.33;35.25;;;6.20;99.90;;;;;;5075158;28;20066;-81
2022/12/19 10:13:22;;;;;;;55.10;33.92;;;6.20;99.90;;;;;;5075223;28;20044;-82
2022/12/19 10:15:47;;;;;;;53.38;32.58;;;6.20;99.90;;;;;;5058430;28;20053;-81
2022/12/19 10:18:44;;;;;;;60.77;34.70;;;6.20;99.90;;;;;;5074359;28;20136;-82
2022/12/19 10:21:32;;;;;;;61.90;34.60;;;6.30;99.90;;;;;;5075109;28;20055;-82
2022/12/19 10:24:16;;;;;;;50.22;32.30;;;6.30;99.90;;;;;;5075689;28;20044;-82
2022/12/19 10:26:48;;;;;;;47.63;31.48;;;6.30;99.90;;;;;;5074983;28;20052;-83
2022/12/19 10:29:33;;;;;;;49.53;32.45;;;;;;;;;;5040551;28;20123;-81
2022/12/19 10:32:07;;;;;;;48.58;32.05;;;;;;;;;;5074520;28;20500;-82
2022/12/19 10:34:38;;;;;;;45.10;30.45;;;6.60;99.90;;;;;;5057421;28;20052;-82
2022/12/19 10:37:22;;;;;;;51.10;33.17;;;;;;;;;;5057948;28;20093;-82
2022/12/19 10:40:09;;;;;;;45.90;30.58;;;6.20;99.90;;;;;;5056989;28;20052;-82
2022/12/19 10:43:10;;;;;;;50.50;31.20;;;6.50;99.90;;;;;;5074639;28;20063;-82
2022/12/19 10:45:43;;;;;;;54.03;32.10;;;6.50;99.90;;;;;;5041228;28;20052;-82
2022/12/19 10:48:17;;;;;;;44.85;30.55;;;6.60;99.90;;;;;;5075087;28;20102;-82
2022/12/19 10:50:43;;;;;;;46.80;30.23;;;6.60;99.90;;;;;;5075018;28;20048;-82
2022/12/19 10:53:10;;;;;;;42.53;28.73;;;6.70;99.90;;;;;;5074095;28;20052;-83
2022/12/19 10:55:44;;;;;;;44.92;28.63;;;6.70;99.90;;;;;;5057567;28;20052;-83
2022/12/19 10:58:34;;;;;;;49.33;30.05;;;6.70;99.90;;;;;;5056702;28;20135;-83
2022/12/19 11:01:17;;;;;;;40.08;28.02;;;6.80;99.90;;;;;;5075126;28;20128;-83
2022/12/19 11:03:46;;;;;;;42.83;28.70;;;6.80;99.90;;;;;;5075108;28;20052;-82
2022/12/19 11:06:49;;;;;;;35.40;26.08;;;6.80;99.90;;;;;;5074443;28;20045;-82
2022/12/19 11:09:42;;;;;;;39.67;27.27;;;7.00;99.90;;;;;;4973007;28;20499;-82
2022/12/19 11:12:10;;;;;;;33.58;24.30;;;6.90;99.90;;;;;;5071856;28;20064;-82
2022/12/19 11:14:38;;;;;;;29.60;22.77;;;6.90;99.90;;;;;;5073978;28;20135;-82
2022/12/19 11:17:06;;;;;;;34.28;24.58;;;6.90;99.90;;;;;;5074444;28;20044;-82
2022/12/19 11:19:35;;;;;;;37.50;24.35;;;6.90;99.90;;;;;;5073884;28;20044;-82
2022/12/19 11:22:13;;;;;;;35.42;25.42;;;6.90;99.90;;;;;;5074335;28;20110;-82
2022/12/19 11:24:45;;;;;;;30.48;22.25;;;7.00;99.90;;;;;;5074477;28;20147;-83
2022/12/19 11:27:37;;;;;;;32.08;22.75;;;7.00;99.90;;;;;;5073752;28;20044;-82
2022/12/19 11:30:23;;;;;;;31.67;23.25;;;7.00;99.90;;;;;;5068477;28;20056;-82
2022/12/19 11:33:10;;;;;;;28.25;21.17;;;7.00;99.90;;;;;;5073770;28;20052;-82
2022/12/19 11:35:53;;;;;;;40.90;24.20;;;7.10;99.90;;;;;;5074313;28;20044;-82
2022/12/19 11:38:33;;;;;;;32.10;22.50;;;7.10;99.90;;;;;;5055570;28;20049;-82
2022/12/19 11:41:04;;;;;;;30.63;22.73;;;7.10;99.90;;;;;;5073645;28;20044;-82
2022/12/19 11:43:33;;;;;;;31.83;23.27;;;7.20;99.90;;;;;;5055960;28;20067;-83
2022/12/19 11:46:28;;;;;;;36.25;23.70;;;7.10;99.90;;;;;;5055722;28;20040;-81
2022/12/19 11:49:22;;;;;;;31.73;22.63;;;7.20;99.90;;;;;;5074019;28;20393;-82
2022/12/19 11:52:04;;;;;;;29.88;21.70;;;7.20;99.90;;;;;;5074172;28;20048;-83
2022/12/19 11:55:13;;;;;;;32.67;24.13;;;7.20;99.90;;;;;;5073818;28;20473;-82
2022/12/19 11:57:40;;;;;;;36.80;21.85;;;7.20;99.90;;;;;;5025311;28;20139;-82
2022/12/19 12:00:29;;;;;;;29.23;21.80;;;7.30;99.90;;;;;;5074196;28;20040;-82
2022/12/19 12:03:19;;;;;;;34.47;23.02;;;7.20;99.90;;;;;;5073407;28;20055;-82
2022/12/19 12:05:50;;;;;;;28.63;20.73;;;7.20;99.90;;;;;;5074224;28;20177;-82
2022/12/19 12:08:41;;;;;;;26.23;19.63;;;7.30;99.90;;;;;;5073346;28;20110;-82
2022/12/19 12:11:44;;;;;;;26.48;20.05;;;7.30;99.90;;;;;;5073303;28;20091;-82
2022/12/19 12:14:37;;;;;;;29.23;20.85;;;7.30;99.90;;;;;;5073891;28;20048;-82
2022/12/19 12:17:09;;;;;;;25.63;19.33;;;7.30;99.90;;;;;;5073234;28;20494;-83
2022/12/19 12:19:59;;;;;;;26.83;19.40;;;7.30;99.90;;;;;;5055117;28;20055;-82
2022/12/19 12:22:41;;;;;;;29.23;19.63;;;7.40;99.90;;;;;;5055994;28;20469;-82
2022/12/19 12:25:31;;;;;;;30.08;21.63;;;7.30;99.90;;;;;;5073098;28;20181;-82
2022/12/19 12:28:25;;;;;;;27.57;18.93;;;7.40;99.90;;;;;;5073071;28;20194;-82
2022/12/19 12:31:24;;;;;;;24.58;18.48;;;7.40;99.90;;;;;;5073699;28;20349;-82
2022/12/19 12:33:52;;;;;;;24.58;17.50;;;7.40;99.90;;;;;;5059440;28;20058;-83
2022/12/19 12:36:42;;;;;;;23.20;17.63;;;7.40;99.90;;;;;;5072946;28;20048;-82
2022/12/19 12:39:25;;;;;;;24.45;17.98;;;7.50;99.90;;;;;;5073435;28;20333;-81
2022/12/19 12:42:05;;;;;;;21.20;15.10;;;7.50;99.90;;;;;;5074918;28;20122;-82
2022/12/19 12:44:38;;;;;;;19.75;15.52;;;7.50;99.90;;;;;;5077458;28;20384;-82
2022/12/19 12:47:23;;;;;;;22.43;16.23;;;7.50;99.90;;;;;;5076817;28;20392;-81
2022/12/19 12:49:57;;;;;;;21.52;15.45;;;7.50;99.90;;;;;;5076995;28;20295;-82
2022/12/19 12:52:48;;;;;;;21.30;15.77;;;7.60;99.90;;;;;;5059039;28;20080;-82
2022/12/19 12:55:29;;;;;;;26.33;16.95;;;7.60;99.90;;;;;;5076287;28;20488;-82
2022/12/19 12:57:55;;;;;;;20.40;15.03;;;7.60;99.90;;;;;;5076549;28;20063;-82
2022/12/19 13:00:28;;;;;;;20.50;15.13;;;;;;;;;;5076502;28;20358;-83
2022/12/19 13:03:04;;;;;;;23.07;15.40;;;7.60;99.90;;;;;;5076798;28;20419;-84
2022/12/19 13:06:01;;;;;;;21.80;16.47;;;7.60;99.90;;;;;;5058669;28;20277;-84
2022/12/19 13:08:45;;;;;;;24.03;17.10;;;7.60;99.90;;;;;;5058731;28;20290;-84
2022/12/19 13:14:34;;;;;;;21.92;17.00;;;7.60;99.90;;;;;;5076197;28;20774;-84
2022/12/19 13:17:05;;;;;;;20.63;15.73;;;7.60;99.90;;;;;;5058586;28;20094;-82
2022/12/19 13:19:36;;;;;;;23.77;17.63;;;7.70;99.90;;;;;;5075891;28;20746;-83
2022/12/19 13:22:08;;;;;;;25.23;18.23;;;7.60;99.90;;;;;;5076101;28;20631;-82